Aeroporto :
LOGIN :

Iscrizione | Disclaimer

   EN    FR    IT 

 










Sommario :    VFR   VFR Marginale   IFR   IFR Intensivo   IFR Molto Intensivo
Visibilità : 
Base nubi : 
>= 8 km
>= 3000ft
5 / 8 km
1000 / 3000 ft
1500m / 5 km
500 / 1000 ft
800 / 1500m
200 / 500 ft
< 800m
< 200 ft
Simboli :   Temporali  Nebbia  Neve Forte  Precipitazioni Forti  Vento > 20 kt
SIGMETs :   Varie  Temporali  Ghiacco  Turbolenza  Onda orograficha  Ceneri Vulcaniche







- Altitudine del aeroporto : 10 ft
- Codice IATA : AAL


EKYT - Aalborg

ULTIMO METAR :
  • 211050Z AUTO 25020KT 9999 SCT010/// OVC013/// 10/08 Q1024

METARs OBSOLETI :
  • 211020Z AUTO 25021KT 9999 BKN010/// OVC013/// 10/08 Q1024
  • 210950Z AUTO 25020KT 9999 BKN010/// OVC013/// 10/09 Q1024
  • 210920Z AUTO 25022KT 9999 BKN010/// 10/08 Q1024
  • 210850Z AUTO 25020KT 9999 BKN010/// BKN013/// 10/09 Q1024
  • 210820Z AUTO 25019KT 9999 FEW009/// BKN011/// 10/09 Q1023

TAF TAF EKYT
Valido dal 21 a 12 ore il 22 a 12 ore UTC


211123Z 2112/2212 25018KT 9999 SCT020
TEMPO 2112/2124 7000
PROB40 2112/2118 BKN012
BECMG 2119/2122 VRB05KT
TEMPO 2200/2206 3000 BR
BECMG 2207/2210 20008KT
Nessun NOTAM noto per questo aeroporto.



MetMap, La meteo Aeronautica in un colpo d'occhio ! - Copyright ORBIFLY Dicembre 2007 - Disclaimer

ORBIFLY MET'MAP TEAM :

Programmazione e sviluppo : Alexandra Zaïnal
Concezione e sviluppo : Baudouin d'Aumeries
Co-Programmazione e sviluppo : Marc-Olivier Méhu
Supporto tecnico e logistico : Manuel Goepfert
Aiuto per la traduzione : Arnaldo La Scala

Contatto : metmap@orbifly.com




FONTI E CREDITI :

   NOAA